Time;durP1;ratioP1;P1;durP2;ratioP2;P2;SDS_P1;SDS_P2;PMS_P1;PMS_P2;Temp;Humidity;BMP_temperature;BMP_pressure;BME280_temperature;BME280_humidity;BME280_pressure;Samples;Min_cycle;Max_cycle;Signal;HPM_P1;HPM_P2
2022/11/08 00:02:28;;;;;;;7.63;3.70;;;8.70;99.90;;;;;;5028860;28;20490;-78
2022/11/08 00:04:54;;;;;;;8.90;3.67;;;8.60;99.90;;;;;;5021287;28;20049;-78
2022/11/08 00:15:37;;;;;;;10.50;4.18;;;8.40;99.90;;;;;;5038652;28;20034;-79
2022/11/08 00:18:04;;;;;;;10.18;4.88;;;8.30;99.90;;;;;;5024894;28;20037;-78
2022/11/08 00:20:31;;;;;;;6.63;3.63;;;8.20;99.90;;;;;;5018625;28;20037;-78
2022/11/08 00:22:57;;;;;;;12.15;4.10;;;8.10;99.90;;;;;;5029534;28;20060;-78
2022/11/08 00:25:23;;;;;;;7.38;4.40;;;8.10;99.90;;;;;;5014170;28;20042;-78
2022/11/08 00:27:49;;;;;;;8.15;4.07;;;8.10;99.90;;;;;;5020984;28;20041;-86
2022/11/08 00:30:15;;;;;;;7.28;3.95;;;8.00;99.90;;;;;;5024156;28;20057;-78
2022/11/08 00:32:41;;;;;;;7.13;3.47;;;7.90;99.90;;;;;;5029593;28;20045;-78
2022/11/08 00:35:08;;;;;;;7.57;4.53;;;7.80;99.90;;;;;;5017285;28;20629;-78
2022/11/08 00:37:34;;;;;;;8.35;4.80;;;7.70;99.90;;;;;;5035585;28;20029;-78
2022/11/08 00:40:00;;;;;;;7.65;3.42;;;7.60;99.90;;;;;;5024020;28;20387;-78
2022/11/08 00:42:26;;;;;;;7.65;4.28;;;7.60;99.90;;;;;;5021976;28;20049;-78
2022/11/08 00:44:52;;;;;;;7.50;4.00;;;7.50;99.90;;;;;;5031440;28;20034;-78
2022/11/08 00:47:18;;;;;;;8.80;3.80;;;7.50;99.90;;;;;;5025403;28;20041;-78
2022/11/08 00:49:44;;;;;;;6.63;3.63;;;7.50;99.90;;;;;;5031156;28;20394;-77
2022/11/08 00:52:11;;;;;;;7.70;3.72;;;7.50;99.90;;;;;;5019713;28;20025;-78
2022/11/08 00:54:37;;;;;;;7.93;4.28;;;7.50;99.90;;;;;;5022916;28;20040;-77
2022/11/08 00:57:03;;;;;;;6.20;3.53;;;7.40;99.90;;;;;;5015717;28;20030;-78
2022/11/08 00:59:29;;;;;;;7.68;3.97;;;7.40;99.90;;;;;;5023797;28;20037;-78
2022/11/08 01:01:55;;;;;;;10.00;3.80;;;7.40;99.90;;;;;;5034757;28;20037;-77
2022/11/08 01:04:21;;;;;;;9.80;4.18;;;7.30;99.90;;;;;;5035475;28;20045;-78
2022/11/08 01:06:47;;;;;;;7.65;4.35;;;7.30;99.90;;;;;;5035970;28;20038;-78
2022/11/08 01:09:14;;;;;;;7.20;3.90;;;7.30;99.90;;;;;;5015471;28;20037;-78
2022/11/08 01:11:45;;;;;;;10.88;4.03;;;7.30;99.90;;;;;;5027274;28;20036;-78
2022/11/08 01:14:12;;;;;;;9.57;3.70;;;7.20;99.90;;;;;;5034346;28;20041;-77
2022/11/08 01:16:38;;;;;;;11.38;4.00;;;7.20;99.90;;;;;;5021788;28;20037;-78
2022/11/08 01:19:04;;;;;;;5.40;3.10;;;7.20;99.90;;;;;;5033662;28;20394;-78
2022/11/08 01:21:31;;;;;;;5.55;3.38;;;7.20;99.90;;;;;;5034102;28;20390;-80
2022/11/08 01:23:57;;;;;;;7.60;3.28;;;7.20;99.90;;;;;;5033978;28;20029;-78
2022/11/08 01:26:26;;;;;;;8.77;3.50;;;7.20;99.90;;;;;;5015846;28;20057;-77
2022/11/08 01:28:53;;;;;;;8.55;3.88;;;7.10;99.90;;;;;;5014012;28;20034;-85
2022/11/08 01:31:25;;;;;;;8.13;4.32;;;7.10;99.90;;;;;;5019158;28;20036;-78
2022/11/08 01:33:52;;;;;;;7.45;4.07;;;7.10;99.90;;;;;;5015030;28;20041;-86
2022/11/08 01:36:21;;;;;;;8.80;3.85;;;7.10;99.90;;;;;;5025711;28;20038;-78
2022/11/08 01:38:48;;;;;;;7.78;5.07;;;7.10;99.90;;;;;;5015546;28;20494;-78
2022/11/08 01:41:15;;;;;;;18.15;5.78;;;7.10;99.90;;;;;;5033440;28;20052;-78
2022/11/08 01:43:44;;;;;;;7.15;4.22;;;7.10;99.90;;;;;;5029170;28;20033;-77
2022/11/08 01:46:30;;;;;;;19.00;4.38;;;7.00;99.90;;;;;;5031857;28;20639;-78
2022/11/08 01:49:12;;;;;;;10.13;4.82;;;6.90;99.90;;;;;;5020798;28;20037;-78
2022/11/08 01:51:45;;;;;;;6.82;3.92;;;6.80;99.90;;;;;;5018168;28;20041;-78
2022/11/08 01:54:17;;;;;;;8.07;4.68;;;6.80;99.90;;;;;;5029564;28;20181;-77
2022/11/08 01:56:44;;;;;;;13.45;6.32;;;6.70;99.90;;;;;;5026796;28;20487;-78
2022/11/08 01:59:11;;;;;;;8.70;4.45;;;6.70;99.90;;;;;;5017211;28;20030;-78
2022/11/08 02:01:38;;;;;;;7.35;3.67;;;6.70;99.90;;;;;;5026906;28;20382;-78
2022/11/08 02:04:05;;;;;;;9.68;4.82;;;6.60;99.90;;;;;;5028898;28;20033;-78
2022/11/08 02:06:33;;;;;;;9.00;4.28;;;6.60;99.90;;;;;;5033668;28;20029;-78
2022/11/08 02:09:03;;;;;;;8.18;3.88;;;6.40;99.90;;;;;;5024244;28;20044;-78
2022/11/08 02:11:30;;;;;;;10.15;4.75;;;6.40;99.90;;;;;;4997734;28;20050;-78
2022/11/08 02:13:57;;;;;;;9.18;4.20;;;6.30;99.90;;;;;;5026598;28;20042;-83
2022/11/08 02:16:23;;;;;;;9.60;4.10;;;6.30;99.90;;;;;;5033918;28;20367;-78
2022/11/08 02:18:49;;;;;;;6.43;3.65;;;6.30;99.90;;;;;;5018999;28;20030;-78
2022/11/08 02:21:18;;;;;;;10.45;5.93;;;6.30;99.90;;;;;;5013768;28;20234;-78
2022/11/08 02:23:52;;;;;;;6.55;4.00;;;6.30;99.90;;;;;;5013810;28;20040;-78
2022/11/08 02:26:23;;;;;;;7.18;4.57;;;6.30;99.90;;;;;;4992900;28;20045;-78
2022/11/08 02:28:49;;;;;;;7.90;3.60;;;6.20;99.90;;;;;;5029164;28;20033;-78
2022/11/08 02:31:17;;;;;;;10.02;4.65;;;6.20;99.90;;;;;;5026771;28;20026;-79
2022/11/08 02:33:44;;;;;;;6.40;3.97;;;6.10;99.90;;;;;;5031430;28;20363;-78
2022/11/08 02:36:20;;;;;;;7.95;4.43;;;6.10;99.90;;;;;;5019579;28;20032;-78
2022/11/08 02:38:54;;;;;;;10.93;4.30;;;6.10;99.90;;;;;;5013378;28;20030;-78
2022/11/08 02:41:20;;;;;;;15.30;5.22;;;6.10;99.90;;;;;;5013130;28;20092;-80
2022/11/08 02:43:46;;;;;;;7.32;4.43;;;6.00;99.90;;;;;;5013003;28;20475;-78
2022/11/08 02:46:12;;;;;;;7.13;4.38;;;6.00;99.90;;;;;;5015468;28;20379;-78
2022/11/08 02:48:38;;;;;;;9.23;4.65;;;5.90;99.90;;;;;;5033704;28;20481;-78
2022/11/08 02:51:04;;;;;;;10.65;4.53;;;5.90;99.90;;;;;;5009756;28;20038;-83
2022/11/08 02:53:31;;;;;;;8.32;3.55;;;5.90;99.90;;;;;;5036303;28;20026;-79
2022/11/08 02:55:57;;;;;;;10.52;4.82;;;5.80;99.90;;;;;;5039615;28;20029;-83
2022/11/08 02:58:23;;;;;;;9.10;4.30;;;5.90;99.90;;;;;;4995446;28;20041;-78
2022/11/08 03:00:49;;;;;;;8.57;3.85;;;5.90;99.90;;;;;;5019595;28;20040;-78
2022/11/08 03:03:15;;;;;;;7.65;3.92;;;5.90;99.90;;;;;;5018810;28;20590;-78
2022/11/08 03:05:42;;;;;;;6.05;3.47;;;5.90;99.90;;;;;;5019730;28;20034;-78
2022/11/08 03:08:08;;;;;;;8.77;4.05;;;5.80;99.90;;;;;;5018147;28;20033;-78
2022/11/08 03:10:34;;;;;;;6.65;4.13;;;5.80;99.90;;;;;;5027422;28;20042;-77
2022/11/08 03:13:03;;;;;;;9.52;4.28;;;5.70;99.90;;;;;;5025174;28;20360;-79
2022/11/08 03:15:30;;;;;;;11.90;4.65;;;5.70;99.90;;;;;;5024546;28;20463;-77
2022/11/08 03:17:57;;;;;;;6.97;3.75;;;5.70;99.90;;;;;;5018710;28;20029;-83
2022/11/08 03:20:24;;;;;;;7.85;4.43;;;5.70;99.90;;;;;;5024942;28;20044;-77
2022/11/08 03:23:00;;;;;;;5.97;3.75;;;5.70;99.90;;;;;;5018666;28;20048;-78
2022/11/08 03:25:27;;;;;;;10.57;3.97;;;5.70;99.90;;;;;;5025257;28;20056;-77
2022/11/08 03:27:53;;;;;;;8.32;4.07;;;5.70;99.90;;;;;;5026106;28;20048;-77
2022/11/08 03:30:19;;;;;;;10.02;4.53;;;5.60;99.90;;;;;;5032832;28;20498;-78
2022/11/08 03:32:46;;;;;;;7.95;4.00;;;5.50;99.90;;;;;;5032688;28;20021;-78
2022/11/08 03:35:13;;;;;;;8.88;4.20;;;5.50;99.90;;;;;;5032505;28;20029;-77
2022/11/08 03:37:39;;;;;;;8.27;4.30;;;5.50;99.90;;;;;;5032603;28;20032;-78
2022/11/08 03:40:06;;;;;;;7.80;4.50;;;5.50;99.90;;;;;;5031621;28;20029;-77
2022/11/08 03:42:33;;;;;;;8.15;4.60;;;5.50;99.90;;;;;;5032547;28;20036;-77
2022/11/08 03:44:59;;;;;;;11.50;4.78;;;5.50;99.90;;;;;;5016051;28;20041;-83
2022/11/08 03:47:25;;;;;;;7.30;4.57;;;5.50;99.90;;;;;;5001499;28;20475;-78
2022/11/08 03:49:51;;;;;;;7.00;4.15;;;5.40;99.90;;;;;;5012002;28;20034;-77
2022/11/08 03:52:18;;;;;;;9.20;3.97;;;5.30;99.90;;;;;;5018720;28;20290;-78
2022/11/08 03:54:44;;;;;;;11.90;5.05;;;5.30;99.90;;;;;;5010119;28;20372;-78
2022/11/08 03:57:11;;;;;;;8.30;4.10;;;5.20;99.90;;;;;;5024807;28;20029;-78
2022/11/08 03:59:37;;;;;;;8.52;4.70;;;5.20;99.90;;;;;;5020272;28;20060;-77
2022/11/08 04:02:03;;;;;;;8.52;5.65;;;5.30;99.90;;;;;;5015804;28;20030;-79
2022/11/08 04:04:29;;;;;;;8.35;3.97;;;5.30;99.90;;;;;;4998523;28;20045;-77
2022/11/08 04:06:56;;;;;;;15.07;5.75;;;5.40;99.90;;;;;;5036145;28;20046;-78
2022/11/08 04:09:22;;;;;;;10.23;4.35;;;5.30;99.90;;;;;;5035809;28;20771;-78
2022/11/08 04:17:17;;;;;;;7.32;4.68;;;5.30;99.90;;;;;;5023897;28;20034;-78
2022/11/08 04:22:28;;;;;;;8.38;4.78;;;5.20;99.90;;;;;;5029456;28;20056;-78
2022/11/08 04:24:54;;;;;;;12.63;4.38;;;5.10;99.90;;;;;;5015910;28;20037;-77
2022/11/08 04:27:20;;;;;;;10.57;4.60;;;5.10;99.90;;;;;;5009633;28;20029;-78
2022/11/08 04:29:47;;;;;;;7.20;4.03;;;5.10;99.90;;;;;;5022167;28;20048;-78
2022/11/08 04:32:13;;;;;;;11.63;6.72;;;5.00;99.90;;;;;;5031498;28;20482;-78
2022/11/08 04:34:39;;;;;;;8.52;4.00;;;5.00;99.90;;;;;;5023199;28;20034;-78
2022/11/08 04:37:05;;;;;;;13.57;4.93;;;5.00;99.90;;;;;;4998873;28;20038;-79
2022/11/08 04:39:31;;;;;;;10.38;4.22;;;5.00;99.90;;;;;;5025631;28;20032;-77
2022/11/08 04:41:57;;;;;;;8.38;3.65;;;5.10;99.90;;;;;;5025417;28;20037;-78
2022/11/08 04:44:23;;;;;;;10.63;5.10;;;5.10;99.90;;;;;;5021681;28;20049;-77
2022/11/08 04:46:49;;;;;;;11.27;5.55;;;5.10;99.90;;;;;;5016358;28;20045;-78
2022/11/08 04:49:16;;;;;;;11.25;6.20;;;5.10;99.90;;;;;;4997384;28;20052;-78
2022/11/08 04:51:42;;;;;;;22.17;10.52;;;5.00;99.90;;;;;;4998872;28;20029;-78
2022/11/08 04:54:09;;;;;;;28.88;16.00;;;5.10;99.90;;;;;;5009712;28;20479;-78
2022/11/08 04:56:35;;;;;;;93.60;45.38;;;5.20;99.90;;;;;;5035704;28;20044;-78
2022/11/08 04:59:02;;;;;;;131.63;66.93;;;5.20;99.90;;;;;;5021292;28;20030;-81
2022/11/08 05:01:30;;;;;;;123.60;54.55;;;5.30;99.90;;;;;;5015413;28;20026;-78
2022/11/08 05:03:56;;;;;;;192.80;86.75;;;5.40;99.90;;;;;;5028261;28;20046;-78
2022/11/08 05:06:24;;;;;;;215.40;103.15;;;5.40;99.90;;;;;;5014857;28;20030;-78
2022/11/08 05:08:52;;;;;;;222.93;108.80;;;5.50;99.90;;;;;;5003432;28;20037;-78
2022/11/08 05:11:20;;;;;;;234.65;113.75;;;5.60;99.90;;;;;;5033986;28;20041;-78
2022/11/08 05:13:47;;;;;;;134.82;59.45;;;5.90;99.90;;;;;;5021551;28;20038;-77
2022/11/08 05:16:18;;;;;;;68.15;31.98;;;6.10;99.90;;;;;;5033759;28;20051;-78
2022/11/08 05:18:45;;;;;;;69.50;34.10;;;6.40;99.90;;;;;;4995601;28;20026;-77
2022/11/08 05:23:59;;;;;;;46.25;29.27;;;7.00;99.90;;;;;;5033159;28;20044;-81
2022/11/08 05:26:26;;;;;;;16.42;10.85;;;7.20;99.90;;;;;;4990404;28;20107;-81
2022/11/08 05:28:52;;;;;;;20.08;11.70;;;7.40;99.90;;;;;;4996560;28;20030;-81
2022/11/08 05:31:19;;;;;;;53.78;30.10;;;7.40;99.90;;;;;;5006281;28;20065;-80
2022/11/08 05:33:45;;;;;;;25.58;12.32;;;7.30;99.90;;;;;;4998546;28;20056;-81
2022/11/08 05:36:14;;;;;;;27.60;16.30;;;7.40;99.90;;;;;;5007799;28;20100;-81
2022/11/08 05:38:41;;;;;;;18.45;11.25;;;7.50;99.90;;;;;;5014129;28;20050;-81
2022/11/08 05:41:11;;;;;;;28.33;16.08;;;7.50;99.90;;;;;;4974442;28;20093;-81
2022/11/08 05:43:38;;;;;;;26.40;15.88;;;7.50;99.90;;;;;;4995773;28;20048;-81
2022/11/08 05:46:04;;;;;;;17.98;9.13;;;7.50;99.90;;;;;;4996577;28;20372;-82
2022/11/08 05:48:31;;;;;;;17.90;10.15;;;7.50;99.90;;;;;;5003135;28;20045;-81
2022/11/08 05:50:57;;;;;;;17.45;10.38;;;7.50;99.90;;;;;;5032205;28;20045;-82
2022/11/08 05:53:23;;;;;;;42.88;28.65;;;7.30;99.90;;;;;;5013372;28;20129;-81
2022/11/08 05:55:50;;;;;;;42.40;29.45;;;7.30;99.90;;;;;;5003154;28;20037;-81
2022/11/08 05:58:16;;;;;;;38.95;28.30;;;7.30;99.90;;;;;;4995324;28;20038;-81
2022/11/08 06:00:42;;;;;;;62.70;39.90;;;7.20;99.90;;;;;;4990579;28;20044;-82
2022/11/08 06:03:08;;;;;;;36.08;21.73;;;7.20;99.90;;;;;;5014818;28;20034;-82
2022/11/08 06:05:34;;;;;;;26.17;16.40;;;7.20;99.90;;;;;;5017539;28;20037;-82
2022/11/08 06:08:01;;;;;;;25.50;15.55;;;7.10;99.90;;;;;;5015602;28;20025;-84
2022/11/08 06:10:27;;;;;;;37.47;19.25;;;7.20;99.90;;;;;;5012060;28;20052;-82
2022/11/08 06:12:59;;;;;;;11.77;7.35;;;7.20;99.90;;;;;;5026213;28;20467;-80
2022/11/08 06:15:25;;;;;;;16.30;9.88;;;7.30;99.90;;;;;;4998380;28;20041;-81
2022/11/08 06:17:51;;;;;;;7.80;4.95;;;7.50;99.90;;;;;;5022844;28;20038;-80
2022/11/08 06:20:17;;;;;;;9.57;3.72;;;7.50;99.90;;;;;;5019389;28;20030;-82
2022/11/08 06:22:43;;;;;;;6.32;3.30;;;7.60;99.90;;;;;;5022393;28;20060;-80
2022/11/08 06:25:10;;;;;;;9.52;5.85;;;7.60;99.90;;;;;;5027063;28;20037;-82
2022/11/08 06:27:36;;;;;;;11.18;6.75;;;7.50;99.90;;;;;;4999412;28;20048;-81
2022/11/08 06:30:03;;;;;;;8.75;6.57;;;7.40;99.90;;;;;;5015787;28;20056;-81
2022/11/08 06:32:30;;;;;;;13.00;10.35;;;7.30;99.90;;;;;;4997327;28;20443;-79
2022/11/08 06:34:56;;;;;;;8.90;7.43;;;7.30;99.90;;;;;;4991304;28;20048;-81
2022/11/08 06:37:22;;;;;;;5.47;3.67;;;7.20;99.90;;;;;;5002059;28;20037;-82
2022/11/08 06:39:48;;;;;;;13.75;7.45;;;7.20;99.90;;;;;;5003015;28;20036;-82
2022/11/08 06:42:14;;;;;;;12.40;7.75;;;7.10;99.90;;;;;;5003208;28;20042;-82
2022/11/08 06:44:40;;;;;;;9.70;6.25;;;7.10;99.90;;;;;;4992388;28;20041;-82
2022/11/08 06:47:06;;;;;;;10.75;6.65;;;7.10;99.90;;;;;;5007755;28;20052;-82
2022/11/08 06:49:35;;;;;;;12.15;6.05;;;7.20;99.90;;;;;;4998199;28;20071;-81
2022/11/08 06:52:02;;;;;;;9.30;4.95;;;7.20;99.90;;;;;;5007442;28;20041;-81
2022/11/08 06:54:28;;;;;;;7.88;4.22;;;7.30;99.90;;;;;;5026023;28;20041;-81
2022/11/08 06:56:55;;;;;;;21.73;10.02;;;7.30;99.90;;;;;;4998121;28;20041;-81
2022/11/08 06:59:22;;;;;;;11.88;6.63;;;7.40;99.90;;;;;;4999455;28;20038;-81
2022/11/08 07:01:48;;;;;;;6.75;3.85;;;7.60;99.90;;;;;;5032590;28;20458;-81
2022/11/08 07:04:14;;;;;;;8.68;4.15;;;7.80;99.90;;;;;;5033014;28;20041;-81
2022/11/08 07:06:40;;;;;;;8.55;3.72;;;8.00;99.90;;;;;;5021024;28;20032;-81
2022/11/08 07:09:06;;;;;;;8.55;5.15;;;8.20;99.90;;;;;;5019026;28;20057;-81
2022/11/08 07:11:32;;;;;;;10.32;5.53;;;8.30;99.90;;;;;;5004836;28;20044;-81
2022/11/08 07:13:59;;;;;;;11.20;6.88;;;8.40;99.90;;;;;;4999195;28;20045;-81
2022/11/08 07:16:25;;;;;;;13.57;5.85;;;8.40;99.90;;;;;;5015929;28;20102;-81
2022/11/08 07:18:51;;;;;;;6.97;4.60;;;8.60;99.90;;;;;;4979824;28;20075;-81
2022/11/08 07:21:17;;;;;;;15.27;9.02;;;8.60;99.90;;;;;;4992497;28;20363;-82
2022/11/08 07:23:43;;;;;;;10.43;6.30;;;8.70;99.90;;;;;;5007754;28;20407;-81
2022/11/08 07:26:11;;;;;;;6.25;3.83;;;8.70;99.90;;;;;;5025151;28;20033;-82
2022/11/08 07:28:38;;;;;;;5.78;3.83;;;8.90;99.90;;;;;;5024359;28;20037;-82
2022/11/08 07:31:05;;;;;;;5.70;3.10;;;8.90;99.90;;;;;;5022628;28;20053;-81
2022/11/08 07:33:31;;;;;;;6.18;2.92;;;9.00;99.90;;;;;;5027802;28;20344;-81
2022/11/08 07:35:57;;;;;;;5.80;2.97;;;9.10;99.90;;;;;;4997070;28;20395;-81
2022/11/08 07:38:25;;;;;;;6.07;3.38;;;9.10;99.90;;;;;;5022908;28;20029;-81
2022/11/08 07:40:56;;;;;;;6.03;2.85;;;9.10;99.90;;;;;;5036103;28;20041;-82
2022/11/08 07:43:22;;;;;;;7.25;3.40;;;9.10;99.90;;;;;;5011738;28;20042;-80
2022/11/08 07:45:54;;;;;;;9.38;3.15;;;9.20;99.90;;;;;;4973182;28;20118;-81
2022/11/08 07:48:20;;;;;;;5.32;2.67;;;9.10;99.90;;;;;;5017219;28;20040;-82
2022/11/08 07:50:46;;;;;;;4.95;2.75;;;9.20;99.90;;;;;;5001653;28;20391;-80
2022/11/08 07:53:12;;;;;;;9.35;2.35;;;9.30;99.90;;;;;;5028890;28;20033;-81
2022/11/08 07:55:39;;;;;;;8.55;2.78;;;9.30;99.90;;;;;;5017001;28;20091;-80
2022/11/08 07:58:08;;;;;;;4.15;2.38;;;9.40;99.90;;;;;;5017502;28;20037;-81
2022/11/08 08:00:36;;;;;;;3.50;2.20;;;9.40;99.90;;;;;;5017324;28;20041;-81
2022/11/08 08:03:04;;;;;;;5.78;2.15;;;9.50;99.90;;;;;;5022919;28;20475;-81
2022/11/08 08:05:34;;;;;;;6.15;1.95;;;9.60;99.90;;;;;;5009786;28;20034;-81
2022/11/08 08:08:01;;;;;;;5.07;2.15;;;9.70;99.90;;;;;;4988469;28;20577;-81
2022/11/08 08:10:29;;;;;;;9.95;2.47;;;9.70;99.90;;;;;;5011718;28;20049;-81
2022/11/08 08:12:55;;;;;;;4.45;1.95;;;9.80;99.90;;;;;;5004165;28;20042;-81
2022/11/08 08:15:22;;;;;;;4.22;1.55;;;9.90;99.90;;;;;;5011330;28;20050;-81
2022/11/08 08:17:48;;;;;;;4.65;2.38;;;10.00;99.90;;;;;;5003059;28;20041;-81
2022/11/08 08:20:14;;;;;;;3.60;2.30;;;10.10;99.90;;;;;;5014113;28;20056;-82
2022/11/08 08:22:49;;;;;;;4.90;2.35;;;10.20;99.90;;;;;;5000937;28;20041;-81
2022/11/08 08:25:16;;;;;;;5.43;2.38;;;10.30;99.90;;;;;;5003833;28;20041;-83
2022/11/08 08:27:50;;;;;;;5.50;2.75;;;10.30;99.90;;;;;;5010649;28;20037;-82
2022/11/08 08:30:18;;;;;;;6.13;2.33;;;10.40;99.90;;;;;;5027924;28;20394;-82
2022/11/08 08:32:45;;;;;;;4.90;2.55;;;10.50;99.90;;;;;;5015583;28;20044;-82
2022/11/08 08:35:12;;;;;;;4.85;2.28;;;10.60;99.90;;;;;;5009871;28;20053;-82
2022/11/08 08:37:38;;;;;;;5.35;2.47;;;10.70;99.90;;;;;;5012353;28;20088;-82
2022/11/08 08:40:06;;;;;;;4.88;2.55;;;10.90;99.90;;;;;;4998317;28;20056;-82
2022/11/08 08:42:33;;;;;;;4.00;2.60;;;11.00;99.90;;;;;;4985360;28;20043;-83
2022/11/08 08:44:59;;;;;;;5.30;2.40;;;11.10;99.40;;;;;;5014143;28;20033;-83
2022/11/08 08:47:26;;;;;;;5.40;2.20;;;11.30;98.10;;;;;;5027378;28;20383;-82
2022/11/08 08:49:52;;;;;;;4.13;2.65;;;11.50;96.80;;;;;;5023643;28;20045;-80
2022/11/08 08:52:18;;;;;;;4.10;2.03;;;11.60;92.50;;;;;;5029043;28;20044;-81
2022/11/08 08:54:45;;;;;;;5.28;1.90;;;11.80;93.00;;;;;;5033861;28;20026;-82
2022/11/08 08:57:11;;;;;;;2.13;1.40;;;11.90;90.00;;;;;;4986613;28;20045;-90
2022/11/08 08:59:37;;;;;;;4.18;1.42;;;12.10;88.10;;;;;;5010006;28;20056;-82
2022/11/08 09:02:03;;;;;;;6.70;1.40;;;12.30;81.50;;;;;;5000954;28;20041;-83
2022/11/08 09:04:29;;;;;;;3.95;1.45;;;12.40;78.70;;;;;;5003752;28;20386;-82
2022/11/08 09:06:55;;;;;;;14.65;2.10;;;12.20;76.00;;;;;;4997186;28;20475;-84
2022/11/08 09:09:22;;;;;;;4.45;1.25;;;12.10;81.70;;;;;;5021269;28;20376;-83
2022/11/08 09:11:48;;;;;;;2.90;1.40;;;12.00;81.00;;;;;;5013492;28;20395;-84
2022/11/08 09:14:14;;;;;;;3.25;1.10;;;11.90;83.60;;;;;;4997032;28;20049;-85
2022/11/08 09:16:40;;;;;;;14.50;6.82;;;11.80;85.30;;;;;;5008011;28;20030;-84
2022/11/08 09:19:07;;;;;;;44.00;19.13;;;12.00;85.30;;;;;;5026911;28;20029;-83
2022/11/08 09:21:33;;;;;;;28.75;14.70;;;12.10;85.10;;;;;;5027074;28;20034;-84
2022/11/08 09:23:59;;;;;;;5.60;3.42;;;12.20;80.10;;;;;;5026443;28;20037;-83
2022/11/08 09:26:25;;;;;;;3.50;1.70;;;12.30;79.60;;;;;;5027133;28;20412;-85
2022/11/08 09:28:51;;;;;;;10.40;8.32;;;12.40;75.30;;;;;;5033186;28;20056;-84
2022/11/08 09:31:17;;;;;;;7.80;5.22;;;12.40;75.10;;;;;;5003664;28;20038;-84
2022/11/08 09:33:44;;;;;;;5.07;2.28;;;12.50;75.50;;;;;;5021141;28;20046;-84
2022/11/08 09:36:12;;;;;;;6.22;3.20;;;12.60;74.50;;;;;;5018115;28;20470;-85
2022/11/08 09:38:40;;;;;;;7.80;3.05;;;12.70;70.50;;;;;;5029850;28;20041;-84
2022/11/08 09:41:15;;;;;;;3.50;1.95;;;12.70;72.20;;;;;;4999238;28;20033;-84
2022/11/08 09:44:08;;;;;;;4.13;2.80;;;12.70;68.90;;;;;;4994665;28;20387;-83
2022/11/08 09:46:55;;;;;;;4.65;3.78;;;12.70;68.30;;;;;;4994576;28;20064;-83
2022/11/08 09:49:35;;;;;;;4.50;2.42;;;12.70;67.40;;;;;;5018571;28;20502;-82
2022/11/08 09:52:03;;;;;;;5.38;3.08;;;12.80;64.30;;;;;;5003345;28;20061;-83
2022/11/08 09:54:38;;;;;;;3.13;1.88;;;12.90;62.90;;;;;;5026533;28;20045;-84
2022/11/08 09:57:05;;;;;;;4.55;2.15;;;13.00;65.80;;;;;;4992546;28;20042;-83
2022/11/08 09:59:44;;;;;;;3.25;1.90;;;13.10;63.90;;;;;;5025106;28;20040;-82
2022/11/08 10:02:22;;;;;;;7.30;5.15;;;13.20;61.90;;;;;;5006393;28;20033;-82
2022/11/08 10:04:55;;;;;;;6.70;5.22;;;13.30;58.80;;;;;;4992533;28;20037;-84
2022/11/08 10:07:31;;;;;;;4.13;2.08;;;13.20;60.30;;;;;;5026107;28;20485;-86
2022/11/08 10:10:06;;;;;;;5.13;3.08;;;13.30;53.70;;;;;;5015102;28;20057;-84
2022/11/08 10:12:58;;;;;;;3.65;1.70;;;13.40;55.40;;;;;;5020912;28;20034;-81
2022/11/08 10:15:33;;;;;;;4.93;2.10;;;13.40;55.00;;;;;;5020010;28;20478;-83
2022/11/08 10:17:59;;;;;;;6.25;2.83;;;13.50;54.90;;;;;;5008710;28;20045;-84
2022/11/08 10:20:31;;;;;;;3.60;1.85;;;13.70;51.20;;;;;;5012657;28;20034;-87
2022/11/08 10:23:23;;;;;;;3.63;2.22;;;13.80;47.20;;;;;;4995948;28;20045;-83
2022/11/08 10:25:59;;;;;;;3.15;1.70;;;13.80;42.80;;;;;;5032011;28;20036;-83
2022/11/08 10:28:42;;;;;;;3.00;1.30;;;13.90;44.10;;;;;;5020501;28;20038;-84
2022/11/08 10:31:11;;;;;;;1.92;0.90;;;14.00;40.60;;;;;;5016488;28;20050;-85
2022/11/08 10:33:48;;;;;;;3.42;1.42;;;13.90;39.00;;;;;;5024488;28;20029;-84
2022/11/08 10:36:42;;;;;;;5.25;1.80;;;13.90;43.40;;;;;;5007441;28;20042;-83
2022/11/08 10:39:08;;;;;;;6.60;1.90;;;14.00;40.70;;;;;;5011852;28;20033;-83
2022/11/08 10:41:57;;;;;;;5.47;1.30;;;14.00;35.70;;;;;;5002000;28;20038;-84
2022/11/08 10:44:25;;;;;;;5.40;1.58;;;14.00;38.30;;;;;;4979324;28;20380;-83
2022/11/08 10:46:59;;;;;;;5.45;1.95;;;14.00;38.30;;;;;;5019119;28;20034;-84
2022/11/08 10:49:30;;;;;;;2.63;1.60;;;14.20;40.20;;;;;;5012930;28;20041;-84
2022/11/08 10:52:01;;;;;;;4.00;1.00;;;14.20;36.10;;;;;;5020492;28;20125;-84
2022/11/08 10:54:44;;;;;;;6.22;1.30;;;14.20;32.90;;;;;;5013569;28;20044;-82
2022/11/08 10:57:17;;;;;;;3.33;1.65;;;14.10;32.60;;;;;;5003533;28;20037;-84
2022/11/08 10:59:44;;;;;;;3.00;1.42;;;14.20;33.90;;;;;;4984818;28;20046;-82
2022/11/08 11:02:34;;;;;;;2.92;1.38;;;14.40;31.40;;;;;;5015875;28;20038;-83
2022/11/08 11:05:20;;;;;;;3.47;1.17;;;14.50;31.70;;;;;;5025396;28;20507;-84
2022/11/08 11:07:57;;;;;;;5.85;2.00;;;14.50;32.80;;;;;;5012835;28;20052;-83
2022/11/08 11:10:28;;;;;;;3.10;1.50;;;14.50;28.80;;;;;;5011605;28;20041;-83
2022/11/08 11:13:25;;;;;;;3.53;1.67;;;14.50;26.90;;;;;;5005585;28;20045;-83
2022/11/08 11:16:02;;;;;;;1.92;1.10;;;14.70;28.50;;;;;;4998057;28;20045;-84
2022/11/08 11:18:46;;;;;;;3.50;1.48;;;14.90;27.60;;;;;;5032787;28;20037;-84
2022/11/08 11:21:15;;;;;;;3.08;1.00;;;15.10;23.40;;;;;;5007697;28;20037;-83
2022/11/08 11:23:54;;;;;;;2.50;1.45;;;15.20;22.20;;;;;;5038360;28;20041;-83
2022/11/08 11:26:33;;;;;;;3.22;1.70;;;15.20;17.50;;;;;;5025461;28;20038;-83
2022/11/08 11:29:05;;;;;;;2.42;1.23;;;15.40;17.90;;;;;;5018930;28;20046;-85
2022/11/08 11:31:36;;;;;;;3.25;1.10;;;15.40;17.40;;;;;;5018897;28;20034;-84
2022/11/08 11:34:18;;;;;;;5.20;1.80;;;15.50;16.70;;;;;;5024309;28;20034;-81
2022/11/08 11:37:14;;;;;;;2.70;1.45;;;15.50;16.40;;;;;;5019467;28;20026;-81
2022/11/08 11:39:51;;;;;;;3.30;1.40;;;15.30;16.10;;;;;;5018605;28;20034;-83
2022/11/08 11:42:33;;;;;;;4.22;1.77;;;15.00;16.40;;;;;;5008377;28;20038;-82
2022/11/08 11:45:30;;;;;;;3.28;1.70;;;14.90;17.30;;;;;;5022272;28;20033;-83
2022/11/08 11:48:02;;;;;;;5.40;1.83;;;14.90;19.10;;;;;;5002112;28;20387;-83
2022/11/08 11:50:37;;;;;;;4.53;1.33;;;15.00;18.40;;;;;;4995903;28;20501;-82
2022/11/08 11:53:18;;;;;;;4.97;1.50;;;14.90;17.30;;;;;;5031512;28;20040;-83
2022/11/08 11:56:16;;;;;;;6.18;1.15;;;14.90;20.30;;;;;;5031572;28;20038;-82
2022/11/08 11:58:54;;;;;;;3.13;1.33;;;14.90;21.10;;;;;;5030835;28;20033;-84
2022/11/08 12:01:32;;;;;;;3.80;1.10;;;14.80;20.10;;;;;;5029916;28;20033;-84
2022/11/08 12:04:20;;;;;;;4.22;1.58;;;14.80;19.20;;;;;;5000662;28;20076;-82
2022/11/08 12:07:07;;;;;;;3.90;1.17;;;14.80;19.30;;;;;;5018579;28;20041;-82
2022/11/08 12:09:44;;;;;;;3.45;1.10;;;14.80;18.50;;;;;;5021597;28;20014;-84
2022/11/08 12:12:29;;;;;;;3.30;1.10;;;14.80;19.20;;;;;;5017997;28;20022;-84
2022/11/08 12:15:19;;;;;;;3.65;1.58;;;14.90;19.10;;;;;;5020126;28;20046;-84
2022/11/08 12:18:12;;;;;;;3.50;1.25;;;14.90;19.20;;;;;;5017148;28;20056;-82
2022/11/08 12:20:41;;;;;;;1.30;0.73;;;14.90;19.00;;;;;;4995773;28;20038;-84
2022/11/08 12:23:46;;;;;;;5.50;1.88;;;15.00;21.10;;;;;;5020027;28;20034;-82
2022/11/08 12:26:39;;;;;;;5.82;1.20;;;15.00;18.70;;;;;;5009137;28;20046;-83
2022/11/08 12:29:05;;;;;;;3.65;1.30;;;15.00;18.30;;;;;;5016376;28;20081;-81
2022/11/08 12:31:37;;;;;;;3.15;1.23;;;14.90;18.70;;;;;;5003108;28;20041;-84
2022/11/08 12:34:25;;;;;;;3.47;0.95;;;14.80;18.60;;;;;;5027794;28;20037;-82
2022/11/08 12:37:25;;;;;;;4.10;1.90;;;14.90;18.80;;;;;;5025520;28;20037;-82
2022/11/08 12:40:38;;;;;;;4.53;1.83;;;15.00;19.60;;;;;;5034733;28;20041;-84
2022/11/08 12:43:52;;;;;;;4.45;1.30;;;15.00;18.00;;;;;;4942577;28;20399;-83
2022/11/08 12:46:20;;;;;;;3.78;1.40;;;15.10;19.70;;;;;;4918194;29;20136;-83
2022/11/08 12:48:49;;;;;;;8.77;1.42;;;15.10;18.60;;;;;;4907030;29;20429;-84
2022/11/08 12:51:39;;;;;;;6.30;1.33;;;15.20;18.40;;;;;;4957842;28;20049;-83
2022/11/08 12:54:11;;;;;;;5.90;1.38;;;15.30;17.50;;;;;;4992923;28;20379;-84
2022/11/08 12:56:42;;;;;;;6.90;1.40;;;15.30;18.20;;;;;;5033825;28;20041;-85
2022/11/08 12:59:22;;;;;;;4.80;1.48;;;15.40;17.50;;;;;;5021211;28;20387;-82
2022/11/08 13:01:49;;;;;;;2.60;1.33;;;15.40;15.40;;;;;;5023717;28;20487;-83
2022/11/08 13:04:29;;;;;;;3.42;1.23;;;15.40;16.80;;;;;;5018392;28;20034;-83
2022/11/08 13:07:02;;;;;;;3.50;1.38;;;15.30;16.80;;;;;;5001633;28;20042;-84
2022/11/08 13:09:51;;;;;;;4.25;1.55;;;15.20;18.30;;;;;;5016308;28;20061;-84
2022/11/08 13:12:33;;;;;;;8.13;1.35;;;15.20;17.20;;;;;;5008283;28;20033;-85
2022/11/08 13:15:00;;;;;;;7.45;1.15;;;15.20;17.60;;;;;;5017611;28;20038;-84
2022/11/08 13:17:29;;;;;;;4.20;1.73;;;15.20;17.80;;;;;;4989961;28;20053;-82
2022/11/08 13:20:03;;;;;;;4.60;1.95;;;15.20;14.90;;;;;;4999720;28;20030;-86
2022/11/08 13:22:32;;;;;;;3.60;1.00;;;15.30;16.10;;;;;;5007385;28;20030;-81
2022/11/08 13:25:04;;;;;;;6.50;1.27;;;15.40;14.10;;;;;;5008838;28;20479;-82